WXM80 ListenWXM80 Stop

You find our weather info also at:

UK Metoffice

WeatherCloud

Weather Underground

Northeastern Weather Network

AWEKAS

Citizen Weather Observer Program (CWOP)

HAMweather, WeatherForYou, PWS Weather


Weather Underground History page Text

Daily Summary for September 23, 2017 Units:  Both    English   Metric
« Previous Day
Next Day »
Daily Weekly Monthly Yearly Custom
  High: Low: Average:
Temperature: 88.4 °F /  31.3 °C 66.0 °F /  18.9 °C 75 °F /  23.9 °C
Dew Point: 71.3 °F /  21.8 °C 58.7 °F /  14.8 °C 63.3 °F /  17.4 °C
Humidity: 85 % 47 % 68 %
Wind Speed: 8.8 mph /  14.2 km/h - 2 mph /  3.2 km/h
Wind Gust: 11.5 mph /  18.5 km/h - -
Wind:- - SE
Pressure: 29.98 in /  1015.1 hPa 29.90 in /  1012.4 hPa -
Precipitation: 0.00 in /  0 mm    
Historical Graphs
 
 
Tabular Data for September 23, 2017
Time Temperature Dew Point Pressure Wind Wind Speed Wind Gust Humidity Rainfall Rate (Hourly)
00:02 70.4 °F /  21.3 °C 61.7 °F /  16.5 °C 29.90 in /  1012.4 hPa North 5.2 mph /  8.4 km/h 8.0 mph /  12.9 km/h 74 % 0.00 in /  0 mm
00:07 70.3 °F /  21.3 °C 61.6 °F /  16.4 °C 29.90 in /  1012.4 hPa North 5.4 mph /  8.7 km/h 11.5 mph /  18.5 km/h 74 % 0.00 in /  0 mm
00:12 70.3 °F /  21.3 °C 61.6 °F /  16.4 °C 29.90 in /  1012.4 hPa North 5.9 mph /  9.5 km/h 9.2 mph /  14.8 km/h 74 % 0.00 in /  0 mm
00:17 70.2 °F /  21.2 °C 61.9 °F /  16.6 °C 29.90 in /  1012.4 hPa North 7.3 mph /  11.7 km/h 11.5 mph /  18.5 km/h 75 % 0.00 in /  0 mm
00:22 70.1 °F /  21.2 °C 61.4 °F /  16.3 °C 29.90 in /  1012.4 hPa North 5.2 mph /  8.4 km/h 8.1 mph /  13 km/h 74 % 0.00 in /  0 mm
00:27 70.0 °F /  21.1 °C 61.3 °F /  16.3 °C 29.91 in /  1012.8 hPa NNE 5.6 mph /  9 km/h 9.2 mph /  14.8 km/h 74 % 0.00 in /  0 mm
00:32 69.9 °F /  21.1 °C 61.2 °F /  16.2 °C 29.91 in /  1012.8 hPa North 5.2 mph /  8.4 km/h 8.1 mph /  13 km/h 74 % 0.00 in /  0 mm
00:37 69.9 °F /  21.1 °C 61.6 °F /  16.4 °C 29.91 in /  1012.8 hPa North 8.8 mph /  14.2 km/h 11.5 mph /  18.5 km/h 75 % 0.00 in /  0 mm
00:42 69.8 °F /  21 °C 61.5 °F /  16.4 °C 29.90 in /  1012.4 hPa NNE 7.2 mph /  11.6 km/h 8.1 mph /  13 km/h 75 % 0.00 in /  0 mm
00:47 69.7 °F /  20.9 °C 61.4 °F /  16.3 °C 29.90 in /  1012.4 hPa NNE 5.7 mph /  9.2 km/h 6.9 mph /  11.1 km/h 75 % 0.00 in /  0 mm
00:52 69.7 °F /  20.9 °C 61.4 °F /  16.3 °C 29.90 in /  1012.4 hPa NNW 4.4 mph /  7.1 km/h 9.0 mph /  14.5 km/h 75 % 0.00 in /  0 mm
00:58 69.6 °F /  20.9 °C 61.7 °F /  16.5 °C 29.91 in /  1012.8 hPa North 4.1 mph /  6.6 km/h 8.1 mph /  13 km/h 76 % 0.00 in /  0 mm
01:03 69.5 °F /  20.8 °C 61.6 °F /  16.4 °C 29.91 in /  1012.8 hPa North 5.0 mph /  8 km/h 9.2 mph /  14.8 km/h 76 % 0.00 in /  0 mm
01:08 69.5 °F /  20.8 °C 61.6 °F /  16.4 °C 29.91 in /  1012.8 hPa North 4.9 mph /  7.9 km/h 9.2 mph /  14.8 km/h 76 % 0.00 in /  0 mm
01:13 69.5 °F /  20.8 °C 61.6 °F /  16.4 °C 29.91 in /  1012.8 hPa NNE 6.9 mph /  11.1 km/h 11.5 mph /  18.5 km/h 76 % 0.00 in /  0 mm
01:18 69.5 °F /  20.8 °C 61.6 °F /  16.4 °C 29.91 in /  1012.8 hPa NNE 5.9 mph /  9.5 km/h 10.4 mph /  16.7 km/h 76 % 0.00 in /  0 mm
01:23 69.6 °F /  20.9 °C 61.7 °F /  16.5 °C 29.91 in /  1012.8 hPa NNE 5.6 mph /  9 km/h 9.2 mph /  14.8 km/h 76 % 0.00 in /  0 mm
01:28 69.6 °F /  20.9 °C 61.7 °F /  16.5 °C 29.91 in /  1012.8 hPa NNE 4.7 mph /  7.6 km/h 7.0 mph /  11.3 km/h 76 % 0.00 in /  0 mm
01:33 69.6 °F /  20.9 °C 61.7 °F /  16.5 °C 29.91 in /  1012.8 hPa NNW 2.9 mph /  4.7 km/h 4.6 mph /  7.4 km/h 76 % 0.00 in /  0 mm
01:38 69.6 °F /  20.9 °C 61.7 °F /  16.5 °C 29.91 in /  1012.8 hPa NE 4.3 mph /  6.9 km/h 6.9 mph /  11.1 km/h 76 % 0.00 in /  0 mm
01:43 69.6 °F /  20.9 °C 61.3 °F /  16.3 °C 29.91 in /  1012.8 hPa North 6.1 mph /  9.8 km/h 8.1 mph /  13 km/h 75 % 0.00 in /  0 mm
01:48 69.6 °F /  20.9 °C 61.3 °F /  16.3 °C 29.90 in /  1012.4 hPa North 2.9 mph /  4.7 km/h 5.8 mph /  9.3 km/h 75 % 0.00 in /  0 mm
01:53 69.5 °F /  20.8 °C 61.2 °F /  16.2 °C 29.90 in /  1012.4 hPa NNE 5.0 mph /  8 km/h 8.1 mph /  13 km/h 75 % 0.00 in /  0 mm
01:58 69.5 °F /  20.8 °C 61.2 °F /  16.2 °C 29.90 in /  1012.4 hPa North 5.8 mph /  9.3 km/h 6.9 mph /  11.1 km/h 75 % 0.00 in /  0 mm
02:03 69.5 °F /  20.8 °C 61.2 °F /  16.2 °C 29.90 in /  1012.4 hPa North 3.3 mph /  5.3 km/h 5.8 mph /  9.3 km/h 75 % 0.00 in /  0 mm
02:08 69.4 °F /  20.8 °C 61.1 °F /  16.2 °C 29.91 in /  1012.8 hPa NNE 3.5 mph /  5.6 km/h 4.6 mph /  7.4 km/h 75 % 0.00 in /  0 mm
02:14 69.4 °F /  20.8 °C 61.1 °F /  16.2 °C 29.91 in /  1012.8 hPa NNE 1.5 mph /  2.4 km/h 4.6 mph /  7.4 km/h 75 % 0.00 in /  0 mm
02:19 69.3 °F /  20.7 °C 61.0 °F /  16.1 °C 29.90 in /  1012.4 hPa NNE 4.1 mph /  6.6 km/h 8.1 mph /  13 km/h 75 % 0.00 in /  0 mm
02:24 69.3 °F /  20.7 °C 61.0 °F /  16.1 °C 29.90 in /  1012.4 hPa ENE 4.3 mph /  6.9 km/h 8.1 mph /  13 km/h 75 % 0.00 in /  0 mm
02:34 69.2 °F /  20.7 °C 60.9 °F /  16.1 °C 29.91 in /  1012.8 hPa NNE 4.2 mph /  6.8 km/h 8.1 mph /  13 km/h 75 % 0.00 in /  0 mm
02:39 69.2 °F /  20.7 °C 60.9 °F /  16.1 °C 29.91 in /  1012.8 hPa NE 4.0 mph /  6.4 km/h 10.4 mph /  16.7 km/h 75 % 0.00 in /  0 mm
02:49 69.3 °F /  20.7 °C 61.4 °F /  16.3 °C 29.90 in /  1012.4 hPa North 1.7 mph /  2.7 km/h 6.9 mph /  11.1 km/h 76 % 0.00 in /  0 mm
02:54 69.3 °F /  20.7 °C 61.4 °F /  16.3 °C 29.90 in /  1012.4 hPa NNE 1.7 mph /  2.7 km/h 4.6 mph /  7.4 km/h 76 % 0.00 in /  0 mm
02:59 69.3 °F /  20.7 °C 61.4 °F /  16.3 °C 29.90 in /  1012.4 hPa NNE 3.3 mph /  5.3 km/h 7.0 mph /  11.3 km/h 76 % 0.00 in /  0 mm
03:02 69.3 °F /  20.7 °C 61.0 °F /  16.1 °C 29.90 in /  1012.4 hPa NNE 2.3 mph /  3.7 km/h 4.6 mph /  7.4 km/h 75 % 0.00 in /  0 mm
03:07 69.3 °F /  20.7 °C 61.4 °F /  16.3 °C 29.90 in /  1012.4 hPa NNE 2.6 mph /  4.2 km/h 5.8 mph /  9.3 km/h 76 % 0.00 in /  0 mm
03:12 69.2 °F /  20.7 °C 60.9 °F /  16.1 °C 29.90 in /  1012.4 hPa North 4.0 mph /  6.4 km/h 5.8 mph /  9.3 km/h 75 % 0.00 in /  0 mm
03:17 69.2 °F /  20.7 °C 60.9 °F /  16.1 °C 29.91 in /  1012.8 hPa North 4.7 mph /  7.6 km/h 5.8 mph /  9.3 km/h 75 % 0.00 in /  0 mm
03:23 69.2 °F /  20.7 °C 61.3 °F /  16.3 °C 29.91 in /  1012.8 hPa NNE 2.7 mph /  4.3 km/h 3.5 mph /  5.6 km/h 76 % 0.00 in /  0 mm
03:28 69.2 °F /  20.7 °C 60.9 °F /  16.1 °C 29.91 in /  1012.8 hPa NNE 4.0 mph /  6.4 km/h 5.8 mph /  9.3 km/h 75 % 0.00 in /  0 mm
03:33 69.2 °F /  20.7 °C 60.9 °F /  16.1 °C 29.90 in /  1012.4 hPa NNE 2.9 mph /  4.7 km/h 6.9 mph /  11.1 km/h 75 % 0.00 in /  0 mm
03:38 69.3 °F /  20.7 °C 60.7 °F /  15.9 °C 29.91 in /  1012.8 hPa NNE 4.8 mph /  7.7 km/h 10.4 mph /  16.7 km/h 74 % 0.00 in /  0 mm
03:43 69.3 °F /  20.7 °C 60.7 °F /  15.9 °C 29.90 in /  1012.4 hPa NNE 3.0 mph /  4.8 km/h 4.6 mph /  7.4 km/h 74 % 0.00 in /  0 mm
03:48 69.4 °F /  20.8 °C 60.4 °F /  15.8 °C 29.90 in /  1012.4 hPa NNE 4.6 mph /  7.4 km/h 6.0 mph /  9.7 km/h 73 % 0.00 in /  0 mm
03:53 69.4 °F /  20.8 °C 60.8 °F /  16 °C 29.90 in /  1012.4 hPa NNE 6.3 mph /  10.1 km/h 9.2 mph /  14.8 km/h 74 % 0.00 in /  0 mm
03:58 69.5 °F /  20.8 °C 61.2 °F /  16.2 °C 29.90 in /  1012.4 hPa NNE 7.3 mph /  11.7 km/h 11.5 mph /  18.5 km/h 75 % 0.00 in /  0 mm
04:03 69.6 °F /  20.9 °C 61.3 °F /  16.3 °C 29.90 in /  1012.4 hPa NNE 4.6 mph /  7.4 km/h 6.9 mph /  11.1 km/h 75 % 0.00 in /  0 mm
04:08 69.7 °F /  20.9 °C 61.4 °F /  16.3 °C 29.90 in /  1012.4 hPa North 4.4 mph /  7.1 km/h 9.2 mph /  14.8 km/h 75 % 0.00 in /  0 mm
04:13 69.7 °F /  20.9 °C 61.0 °F /  16.1 °C 29.90 in /  1012.4 hPa North 3.8 mph /  6.1 km/h 5.8 mph /  9.3 km/h 74 % 0.00 in /  0 mm
04:18 69.8 °F /  21 °C 61.5 °F /  16.4 °C 29.90 in /  1012.4 hPa NE 2.3 mph /  3.7 km/h 5.8 mph /  9.3 km/h 75 % 0.00 in /  0 mm
04:23 69.8 °F /  21 °C 61.5 °F /  16.4 °C 29.90 in /  1012.4 hPa NE 3.6 mph /  5.8 km/h 4.6 mph /  7.4 km/h 75 % 0.00 in /  0 mm
04:28 69.8 °F /  21 °C 61.5 °F /  16.4 °C 29.90 in /  1012.4 hPa NNE 3.8 mph /  6.1 km/h 8.1 mph /  13 km/h 75 % 0.00 in /  0 mm
04:33 69.7 °F /  20.9 °C 61.4 °F /  16.3 °C 29.90 in /  1012.4 hPa NNE 4.9 mph /  7.9 km/h 6.9 mph /  11.1 km/h 75 % 0.00 in /  0 mm
04:38 69.5 °F /  20.8 °C 61.2 °F /  16.2 °C 29.90 in /  1012.4 hPa NNE 4.9 mph /  7.9 km/h 9.0 mph /  14.5 km/h 75 % 0.00 in /  0 mm
04:43 69.4 °F /  20.8 °C 61.1 °F /  16.2 °C 29.90 in /  1012.4 hPa NNE 3.2 mph /  5.1 km/h 7.0 mph /  11.3 km/h 75 % 0.00 in /  0 mm
04:48 69.3 °F /  20.7 °C 61.0 °F /  16.1 °C 29.90 in /  1012.4 hPa NNE 3.4 mph /  5.5 km/h 5.8 mph /  9.3 km/h 75 % 0.00 in /  0 mm
04:53 69.2 °F /  20.7 °C 60.9 °F /  16.1 °C 29.90 in /  1012.4 hPa North 2.6 mph /  4.2 km/h 9.2 mph /  14.8 km/h 75 % 0.00 in /  0 mm
04:58 69.1 °F /  20.6 °C 60.8 °F /  16 °C 29.90 in /  1012.4 hPa NNW 4.0 mph /  6.4 km/h 8.1 mph /  13 km/h 75 % 0.00 in /  0 mm
05:03 69.1 °F /  20.6 °C 60.8 °F /  16 °C 29.90 in /  1012.4 hPa NNE 1.4 mph /  2.3 km/h 4.0 mph /  6.4 km/h 75 % 0.00 in /  0 mm
05:08 69.1 °F /  20.6 °C 60.8 °F /  16 °C 29.90 in /  1012.4 hPa NNE 4.7 mph /  7.6 km/h 6.9 mph /  11.1 km/h 75 % 0.00 in /  0 mm
05:13 69.1 °F /  20.6 °C 60.8 °F /  16 °C 29.90 in /  1012.4 hPa NW 1.4 mph /  2.3 km/h 3.5 mph /  5.6 km/h 75 % 0.00 in /  0 mm
05:18 69.1 °F /  20.6 °C 60.8 °F /  16 °C 29.90 in /  1012.4 hPa NW 2.6 mph /  4.2 km/h 5.8 mph /  9.3 km/h 75 % 0.00 in /  0 mm
05:23 69.2 °F /  20.7 °C 60.9 °F /  16.1 °C 29.91 in /  1012.8 hPa Calm   1.2 mph /  1.9 km/h 75 % 0.00 in /  0 mm
05:28 69.2 °F /  20.7 °C 61.3 °F /  16.3 °C 29.91 in /  1012.8 hPa North 2.2 mph /  3.5 km/h 6.0 mph /  9.7 km/h 76 % 0.00 in /  0 mm
05:33 69.2 °F /  20.7 °C 60.9 °F /  16.1 °C 29.92 in /  1013.1 hPa North 3.5 mph /  5.6 km/h 5.0 mph /  8 km/h 75 % 0.00 in /  0 mm
05:38 69.2 °F /  20.7 °C 61.3 °F /  16.3 °C 29.92 in /  1013.1 hPa NNW 2.7 mph /  4.3 km/h 5.8 mph /  9.3 km/h 76 % 0.00 in /  0 mm
05:43 69.2 °F /  20.7 °C 61.3 °F /  16.3 °C 29.92 in /  1013.1 hPa NNE 0.4 mph /  0.6 km/h 2.3 mph /  3.7 km/h 76 % 0.00 in /  0 mm
05:48 69.3 °F /  20.7 °C 61.4 °F /  16.3 °C 29.92 in /  1013.1 hPa NNE 1.1 mph /  1.8 km/h 1.2 mph /  1.9 km/h 76 % 0.00 in /  0 mm
05:53 69.3 °F /  20.7 °C 61.4 °F /  16.3 °C 29.92 in /  1013.1 hPa North 2.3 mph /  3.7 km/h 4.0 mph /  6.4 km/h 76 % 0.00 in /  0 mm
05:58 69.4 °F /  20.8 °C 61.9 °F /  16.6 °C 29.92 in /  1013.1 hPa North 1.0 mph /  1.6 km/h 3.5 mph /  5.6 km/h 77 % 0.00 in /  0 mm
06:03 69.5 °F /  20.8 °C 62.3 °F /  16.8 °C 29.92 in /  1013.1 hPa NNE 1.7 mph /  2.7 km/h 4.6 mph /  7.4 km/h 78 % 0.00 in /  0 mm
06:09 69.6 °F /  20.9 °C 62.4 °F /  16.9 °C 29.92 in /  1013.1 hPa NNE 1.7 mph /  2.7 km/h 3.5 mph /  5.6 km/h 78 % 0.00 in /  0 mm
06:14 69.6 °F /  20.9 °C 62.1 °F /  16.7 °C 29.92 in /  1013.1 hPa North 2.9 mph /  4.7 km/h 3.5 mph /  5.6 km/h 77 % 0.00 in /  0 mm
06:19 69.7 °F /  20.9 °C 61.8 °F /  16.6 °C 29.92 in /  1013.1 hPa NNW 1.0 mph /  1.6 km/h 5.8 mph /  9.3 km/h 76 % 0.00 in /  0 mm
06:24 69.8 °F /  21 °C 62.3 °F /  16.8 °C 29.92 in /  1013.1 hPa NNW 0.2 mph /  0.3 km/h 2.3 mph /  3.7 km/h 77 % 0.00 in /  0 mm
06:29 69.8 °F /  21 °C 62.3 °F /  16.8 °C 29.92 in /  1013.1 hPa NNW 0.2 mph /  0.3 km/h 2.3 mph /  3.7 km/h 77 % 0.00 in /  0 mm
06:34 69.8 °F /  21 °C 62.3 °F /  16.8 °C 29.92 in /  1013.1 hPa North 0.2 mph /  0.3 km/h 1.2 mph /  1.9 km/h 77 % 0.00 in /  0 mm
06:39 69.8 °F /  21 °C 62.3 °F /  16.8 °C 29.92 in /  1013.1 hPa Calm     77 % 0.00 in /  0 mm
06:44 69.8 °F /  21 °C 61.9 °F /  16.6 °C 29.92 in /  1013.1 hPa North 2.3 mph /  3.7 km/h 3.5 mph /  5.6 km/h 76 % 0.00 in /  0 mm
06:49 69.7 °F /  20.9 °C 61.4 °F /  16.3 °C 29.92 in /  1013.1 hPa NNE 1.4 mph /  2.3 km/h 3.5 mph /  5.6 km/h 75 % 0.00 in /  0 mm
06:54 69.7 °F /  20.9 °C 61.4 °F /  16.3 °C 29.92 in /  1013.1 hPa NNE 1.5 mph /  2.4 km/h 3.5 mph /  5.6 km/h 75 % 0.00 in /  0 mm
06:59 69.6 °F /  20.9 °C 61.3 °F /  16.3 °C 29.92 in /  1013.1 hPa North 2.5 mph /  4 km/h 3.5 mph /  5.6 km/h 75 % 0.00 in /  0 mm
07:04 69.5 °F /  20.8 °C 61.6 °F /  16.4 °C 29.93 in /  1013.4 hPa Calm     76 % 0.00 in /  0 mm
07:09 69.5 °F /  20.8 °C 62.0 °F /  16.7 °C 29.93 in /  1013.4 hPa NW 2.1 mph /  3.4 km/h 4.6 mph /  7.4 km/h 77 % 0.00 in /  0 mm
07:14 69.4 °F /  20.8 °C 61.9 °F /  16.6 °C 29.93 in /  1013.4 hPa North 0.2 mph /  0.3 km/h 5.8 mph /  9.3 km/h 77 % 0.00 in /  0 mm
07:19 69.3 °F /  20.7 °C 61.8 °F /  16.6 °C 29.92 in /  1013.1 hPa WNW 1.6 mph /  2.6 km/h 3.5 mph /  5.6 km/h 77 % 0.00 in /  0 mm
07:24 69.1 °F /  20.6 °C 61.6 °F /  16.4 °C 29.93 in /  1013.4 hPa North 2.1 mph /  3.4 km/h 5.0 mph /  8 km/h 77 % 0.00 in /  0 mm
07:29 69.0 °F /  20.6 °C 61.5 °F /  16.4 °C 29.92 in /  1013.1 hPa NNE 0.7 mph /  1.1 km/h 3.5 mph /  5.6 km/h 77 % 0.00 in /  0 mm
07:34 68.9 °F /  20.5 °C 61.0 °F /  16.1 °C 29.93 in /  1013.4 hPa North 2.4 mph /  3.9 km/h 4.6 mph /  7.4 km/h 76 % 0.00 in /  0 mm
07:39 68.9 °F /  20.5 °C 61.0 °F /  16.1 °C 29.93 in /  1013.4 hPa NNE 0.4 mph /  0.6 km/h 3.5 mph /  5.6 km/h 76 % 0.00 in /  0 mm
07:44 68.9 °F /  20.5 °C 61.4 °F /  16.3 °C 29.93 in /  1013.4 hPa NNW 0.8 mph /  1.3 km/h 2.3 mph /  3.7 km/h 77 % 0.00 in /  0 mm
07:49 68.9 °F /  20.5 °C 61.0 °F /  16.1 °C 29.93 in /  1013.4 hPa NW 0.4 mph /  0.6 km/h 3.5 mph /  5.6 km/h 76 % 0.00 in /  0 mm
07:50 68.9 °F /  20.5 °C 61.0 °F /  16.1 °C 29.93 in /  1013.4 hPa NW 0.9 mph /  1.4 km/h 1.2 mph /  1.9 km/h 76 % 0.00 in /  0 mm
07:55 68.8 °F /  20.4 °C 60.9 °F /  16.1 °C 29.93 in /  1013.4 hPa NNE 3.0 mph /  4.8 km/h 4.6 mph /  7.4 km/h 76 % 0.00 in /  0 mm
08:00 68.8 °F /  20.4 °C 60.9 °F /  16.1 °C 29.94 in /  1013.8 hPa NNE 2.9 mph /  4.7 km/h 5.8 mph /  9.3 km/h 76 % 0.00 in /  0 mm
08:05 68.8 °F /  20.4 °C 60.9 °F /  16.1 °C 29.94 in /  1013.8 hPa NNW 1.8 mph /  2.9 km/h 4.6 mph /  7.4 km/h 76 % 0.00 in /  0 mm
08:10 68.8 °F /  20.4 °C 60.9 °F /  16.1 °C 29.94 in /  1013.8 hPa NNE 1.4 mph /  2.3 km/h 5.8 mph /  9.3 km/h 76 % 0.00 in /  0 mm
08:15 68.9 °F /  20.5 °C 61.0 °F /  16.1 °C 29.94 in /  1013.8 hPa NNW 4.4 mph /  7.1 km/h 4.6 mph /  7.4 km/h 76 % 0.00 in /  0 mm
08:21 69.0 °F /  20.6 °C 61.1 °F /  16.2 °C 29.94 in /  1013.8 hPa North 3.0 mph /  4.8 km/h 7.0 mph /  11.3 km/h 76 % 0.00 in /  0 mm
08:26 69.1 °F /  20.6 °C 61.2 °F /  16.2 °C 29.94 in /  1013.8 hPa North 5.0 mph /  8 km/h 6.0 mph /  9.7 km/h 76 % 0.00 in /  0 mm
08:31 69.3 °F /  20.7 °C 61.0 °F /  16.1 °C 29.94 in /  1013.8 hPa NNE 5.0 mph /  8 km/h 7.0 mph /  11.3 km/h 75 % 0.00 in /  0 mm
08:36 69.4 °F /  20.8 °C 61.1 °F /  16.2 °C 29.95 in /  1014.1 hPa NNE 2.5 mph /  4 km/h 4.6 mph /  7.4 km/h 75 % 0.00 in /  0 mm
08:41 69.6 °F /  20.9 °C 61.7 °F /  16.5 °C 29.95 in /  1014.1 hPa North 3.0 mph /  4.8 km/h 7.0 mph /  11.3 km/h 76 % 0.00 in /  0 mm
08:46 69.7 °F /  20.9 °C 61.4 °F /  16.3 °C 29.95 in /  1014.1 hPa North 5.0 mph /  8 km/h 9.0 mph /  14.5 km/h 75 % 0.00 in /  0 mm
08:51 69.9 °F /  21.1 °C 61.2 °F /  16.2 °C 29.95 in /  1014.1 hPa North 5.0 mph /  8 km/h 8.0 mph /  12.9 km/h 74 % 0.00 in /  0 mm
09:01 70.1 °F /  21.2 °C 61.0 °F /  16.1 °C 29.96 in /  1014.4 hPa North 5.6 mph /  9 km/h 9.2 mph /  14.8 km/h 73 % 0.00 in /  0 mm
09:06 70.3 °F /  21.3 °C 61.6 °F /  16.4 °C 29.96 in /  1014.4 hPa NNE 2.7 mph /  4.3 km/h 6.9 mph /  11.1 km/h 74 % 0.00 in /  0 mm
09:11 70.4 °F /  21.3 °C 61.7 °F /  16.5 °C 29.97 in /  1014.8 hPa NNE 6.6 mph /  10.6 km/h 8.1 mph /  13 km/h 74 % 0.00 in /  0 mm
09:16 70.5 °F /  21.4 °C 61.8 °F /  16.6 °C 29.97 in /  1014.8 hPa North 5.1 mph /  8.2 km/h 9.2 mph /  14.8 km/h 74 % 0.00 in /  0 mm
09:21 70.7 °F /  21.5 °C 62.8 °F /  17.1 °C 29.97 in /  1014.8 hPa North 3.0 mph /  4.8 km/h 4.6 mph /  7.4 km/h 76 % 0.00 in /  0 mm
09:26 70.9 °F /  21.6 °C 63.3 °F /  17.4 °C 29.98 in /  1015.1 hPa NNE 0.7 mph /  1.1 km/h 3.5 mph /  5.6 km/h 77 % 0.00 in /  0 mm
09:31 71.1 °F /  21.7 °C 63.5 °F /  17.5 °C 29.97 in /  1014.8 hPa NNE 2.1 mph /  3.4 km/h 8.1 mph /  13 km/h 77 % 0.00 in /  0 mm
09:36 71.2 °F /  21.8 °C 64.0 °F /  17.8 °C 29.98 in /  1015.1 hPa NNE 2.2 mph /  3.5 km/h 4.6 mph /  7.4 km/h 78 % 0.00 in /  0 mm
09:41 71.4 °F /  21.9 °C 64.2 °F /  17.9 °C 29.97 in /  1014.8 hPa North 5.2 mph /  8.4 km/h 8.1 mph /  13 km/h 78 % 0.00 in /  0 mm
09:51 71.7 °F /  22.1 °C 64.1 °F /  17.8 °C 29.97 in /  1014.8 hPa NNE 2.3 mph /  3.7 km/h 3.5 mph /  5.6 km/h 77 % 0.00 in /  0 mm
09:56 71.9 °F /  22.2 °C 64.3 °F /  17.9 °C 29.97 in /  1014.8 hPa ENE 2.9 mph /  4.7 km/h 5.8 mph /  9.3 km/h 77 % 0.00 in /  0 mm
10:01 72.1 °F /  22.3 °C 64.5 °F /  18.1 °C 29.96 in /  1014.4 hPa ENE 2.7 mph /  4.3 km/h 5.8 mph /  9.3 km/h 77 % 0.00 in /  0 mm
10:06 72.3 °F /  22.4 °C 64.7 °F /  18.2 °C 29.97 in /  1014.8 hPa NNE 2.6 mph /  4.2 km/h 6.9 mph /  11.1 km/h 77 % 0.00 in /  0 mm
10:11 72.5 °F /  22.5 °C 64.9 °F /  18.3 °C 29.97 in /  1014.8 hPa NNE 1.8 mph /  2.9 km/h 3.5 mph /  5.6 km/h 77 % 0.00 in /  0 mm
10:16 72.7 °F /  22.6 °C 65.1 °F /  18.4 °C 29.97 in /  1014.8 hPa NE 1.3 mph /  2.1 km/h 3.5 mph /  5.6 km/h 77 % 0.00 in /  0 mm
10:21 73.0 °F /  22.8 °C 65.4 °F /  18.6 °C 29.97 in /  1014.8 hPa ENE 1.9 mph /  3.1 km/h 3.5 mph /  5.6 km/h 77 % 0.00 in /  0 mm
10:26 73.4 °F /  23 °C 66.1 °F /  18.9 °C 29.97 in /  1014.8 hPa NNE 1.0 mph /  1.6 km/h 2.3 mph /  3.7 km/h 78 % 0.00 in /  0 mm
10:31 73.7 °F /  23.2 °C 66.4 °F /  19.1 °C 29.97 in /  1014.8 hPa North 1.4 mph /  2.3 km/h 3.5 mph /  5.6 km/h 78 % 0.00 in /  0 mm
10:36 74.0 °F /  23.3 °C 66.7 °F /  19.3 °C 29.97 in /  1014.8 hPa NE 1.4 mph /  2.3 km/h 3.0 mph /  4.8 km/h 78 % 0.00 in /  0 mm
10:41 74.2 °F /  23.4 °C 66.5 °F /  19.2 °C 29.97 in /  1014.8 hPa North 2.0 mph /  3.2 km/h 3.5 mph /  5.6 km/h 77 % 0.00 in /  0 mm
10:46 74.4 °F /  23.6 °C 66.7 °F /  19.3 °C 29.97 in /  1014.8 hPa NNE 1.5 mph /  2.4 km/h 3.5 mph /  5.6 km/h 77 % 0.00 in /  0 mm
10:51 74.5 °F /  23.6 °C 66.4 °F /  19.1 °C 29.97 in /  1014.8 hPa NW 0.7 mph /  1.1 km/h 3.5 mph /  5.6 km/h 76 % 0.00 in /  0 mm
10:56 74.6 °F /  23.7 °C 66.1 °F /  18.9 °C 29.97 in /  1014.8 hPa North 2.3 mph /  3.7 km/h 4.6 mph /  7.4 km/h 75 % 0.00 in /  0 mm
11:01 74.8 °F /  23.8 °C 66.3 °F /  19.1 °C 29.97 in /  1014.8 hPa NNE 2.8 mph /  4.5 km/h 4.0 mph /  6.4 km/h 75 % 0.00 in /  0 mm
11:06 75.1 °F /  23.9 °C 67.0 °F /  19.4 °C 29.97 in /  1014.8 hPa NNE 2.8 mph /  4.5 km/h 3.5 mph /  5.6 km/h 76 % 0.00 in /  0 mm
11:10 75.4 °F /  24.1 °C 67.7 °F /  19.8 °C 29.97 in /  1014.8 hPa NNE 3.2 mph /  5.1 km/h 5.8 mph /  9.3 km/h 77 % 0.00 in /  0 mm
11:15 76.1 °F /  24.5 °C 67.6 °F /  19.8 °C 29.97 in /  1014.8 hPa NNE 3.4 mph /  5.5 km/h 6.0 mph /  9.7 km/h 75 % 0.00 in /  0 mm
11:20 77.1 °F /  25.1 °C 68.9 °F /  20.5 °C 29.97 in /  1014.8 hPa NNW 1.6 mph /  2.6 km/h 3.5 mph /  5.6 km/h 76 % 0.00 in /  0 mm
11:25 78.2 °F /  25.7 °C 69.2 °F /  20.7 °C 29.97 in /  1014.8 hPa NNE 2.9 mph /  4.7 km/h 3.5 mph /  5.6 km/h 74 % 0.00 in /  0 mm
11:30 79.3 °F /  26.3 °C 68.7 °F /  20.4 °C 29.97 in /  1014.8 hPa NNE 2.7 mph /  4.3 km/h 4.6 mph /  7.4 km/h 70 % 0.00 in /  0 mm
11:35 80.4 °F /  26.9 °C 68.9 °F /  20.5 °C 29.97 in /  1014.8 hPa NNE 1.5 mph /  2.4 km/h 3.5 mph /  5.6 km/h 68 % 0.00 in /  0 mm
11:40 81.3 °F /  27.4 °C 68.9 °F /  20.5 °C 29.96 in /  1014.4 hPa North 2.7 mph /  4.3 km/h 3.5 mph /  5.6 km/h 66 % 0.00 in /  0 mm
11:46 82.0 °F /  27.8 °C 70.0 °F /  21.1 °C 29.97 in /  1014.8 hPa NNW 0.6 mph /  1 km/h 3.5 mph /  5.6 km/h 67 % 0.00 in /  0 mm
11:51 82.9 °F /  28.3 °C 69.9 °F /  21.1 °C 29.97 in /  1014.8 hPa North 0.9 mph /  1.4 km/h 3.5 mph /  5.6 km/h 65 % 0.00 in /  0 mm
11:56 83.4 °F /  28.6 °C 69.0 °F /  20.6 °C 29.96 in /  1014.4 hPa North 3.0 mph /  4.8 km/h 7.0 mph /  11.3 km/h 62 % 0.00 in /  0 mm
12:01 84.0 °F /  28.9 °C 70.0 °F /  21.1 °C 29.97 in /  1014.8 hPa NNE 3.5 mph /  5.6 km/h 5.8 mph /  9.3 km/h 63 % 0.00 in /  0 mm
12:06 84.3 °F /  29.1 °C 68.9 °F /  20.5 °C 29.97 in /  1014.8 hPa NW 2.0 mph /  3.2 km/h 4.6 mph /  7.4 km/h 60 % 0.00 in /  0 mm
12:11 84.6 °F /  29.2 °C 70.1 °F /  21.2 °C 29.97 in /  1014.8 hPa Calm   1.2 mph /  1.9 km/h 62 % 0.00 in /  0 mm
12:16 85.2 °F /  29.6 °C 70.7 °F /  21.5 °C 29.96 in /  1014.4 hPa NNW 0.6 mph /  1 km/h 2.3 mph /  3.7 km/h 62 % 0.00 in /  0 mm
12:21 85.7 °F /  29.8 °C 69.7 °F /  20.9 °C 29.96 in /  1014.4 hPa NNW 0.4 mph /  0.6 km/h 3.5 mph /  5.6 km/h 59 % 0.00 in /  0 mm
12:26 86.0 °F /  30 °C 70.5 °F /  21.4 °C 29.96 in /  1014.4 hPa North 1.9 mph /  3.1 km/h 3.5 mph /  5.6 km/h 60 % 0.00 in /  0 mm
12:31 86.1 °F /  30.1 °C 70.6 °F /  21.4 °C 29.96 in /  1014.4 hPa NNE 2.0 mph /  3.2 km/h 3.5 mph /  5.6 km/h 60 % 0.00 in /  0 mm
12:36 86.3 °F /  30.2 °C 71.3 °F /  21.8 °C 29.96 in /  1014.4 hPa NNE 2.0 mph /  3.2 km/h 3.5 mph /  5.6 km/h 61 % 0.00 in /  0 mm
12:41 86.6 °F /  30.3 °C 70.1 °F /  21.2 °C 29.96 in /  1014.4 hPa NNE 1.5 mph /  2.4 km/h 4.6 mph /  7.4 km/h 58 % 0.00 in /  0 mm
12:46 86.8 °F /  30.4 °C 70.2 °F /  21.2 °C 29.96 in /  1014.4 hPa NNE 1.7 mph /  2.7 km/h 3.5 mph /  5.6 km/h 58 % 0.00 in /  0 mm
12:51 86.9 °F /  30.5 °C 68.8 °F /  20.4 °C 29.96 in /  1014.4 hPa NNE 2.9 mph /  4.7 km/h 4.6 mph /  7.4 km/h 55 % 0.00 in /  0 mm
12:56 87.1 °F /  30.6 °C 70.5 °F /  21.4 °C 29.95 in /  1014.1 hPa NNE 2.2 mph /  3.5 km/h 5.0 mph /  8 km/h 58 % 0.00 in /  0 mm
13:01 87.4 °F /  30.8 °C 69.8 °F /  21 °C 29.95 in /  1014.1 hPa North 3.1 mph /  5 km/h 4.6 mph /  7.4 km/h 56 % 0.00 in /  0 mm
13:06 87.6 °F /  30.9 °C 70.0 °F /  21.1 °C 29.95 in /  1014.1 hPa North 1.9 mph /  3.1 km/h 3.5 mph /  5.6 km/h 56 % 0.00 in /  0 mm
13:11 87.7 °F /  30.9 °C 70.6 °F /  21.4 °C 29.95 in /  1014.1 hPa North 0.3 mph /  0.5 km/h 1.2 mph /  1.9 km/h 57 % 0.00 in /  0 mm
13:16 87.8 °F /  31 °C 70.7 °F /  21.5 °C 29.95 in /  1014.1 hPa North 2.5 mph /  4 km/h 3.5 mph /  5.6 km/h 57 % 0.00 in /  0 mm
13:21 87.9 °F /  31.1 °C 70.8 °F /  21.6 °C 29.95 in /  1014.1 hPa WNW 2.0 mph /  3.2 km/h 3.5 mph /  5.6 km/h 57 % 0.00 in /  0 mm
13:26 87.9 °F /  31.1 °C 68.6 °F /  20.3 °C 29.95 in /  1014.1 hPa WNW 2.8 mph /  4.5 km/h 5.8 mph /  9.3 km/h 53 % 0.00 in /  0 mm
13:31 88.1 °F /  31.2 °C 68.8 °F /  20.4 °C 29.95 in /  1014.1 hPa NNE 0.6 mph /  1 km/h 2.3 mph /  3.7 km/h 53 % 0.00 in /  0 mm
13:36 88.2 °F /  31.2 °C 69.5 °F /  20.8 °C 29.95 in /  1014.1 hPa NW 2.8 mph /  4.5 km/h 4.6 mph /  7.4 km/h 54 % 0.00 in /  0 mm
13:41 88.1 °F /  31.2 °C 69.4 °F /  20.8 °C 29.95 in /  1014.1 hPa NNE 2.7 mph /  4.3 km/h 5.0 mph /  8 km/h 54 % 0.00 in /  0 mm
13:46 88.2 °F /  31.2 °C 68.9 °F /  20.5 °C 29.94 in /  1013.8 hPa NW 2.4 mph /  3.9 km/h 4.6 mph /  7.4 km/h 53 % 0.00 in /  0 mm
13:51 88.3 °F /  31.3 °C 68.4 °F /  20.2 °C 29.94 in /  1013.8 hPa NW 0.9 mph /  1.4 km/h 4.6 mph /  7.4 km/h 52 % 0.00 in /  0 mm
13:56 88.4 °F /  31.3 °C 69.6 °F /  20.9 °C 29.94 in /  1013.8 hPa North 2.7 mph /  4.3 km/h 4.6 mph /  7.4 km/h 54 % 0.00 in /  0 mm
14:01 88.4 °F /  31.3 °C 68.5 °F /  20.3 °C 29.94 in /  1013.8 hPa NNW 3.3 mph /  5.3 km/h 4.6 mph /  7.4 km/h 52 % 0.00 in /  0 mm
14:06 88.2 °F /  31.2 °C 68.9 °F /  20.5 °C 29.94 in /  1013.8 hPa NNE 2.4 mph /  3.9 km/h 5.8 mph /  9.3 km/h 53 % 0.00 in /  0 mm
14:12 88.1 °F /  31.2 °C 68.3 °F /  20.2 °C 29.94 in /  1013.8 hPa NNW 4.9 mph /  7.9 km/h 9.2 mph /  14.8 km/h 52 % 0.00 in /  0 mm
14:17 87.9 °F /  31.1 °C 69.7 °F /  20.9 °C 29.94 in /  1013.8 hPa NNW 4.5 mph /  7.2 km/h 5.8 mph /  9.3 km/h 55 % 0.00 in /  0 mm
14:22 87.7 °F /  30.9 °C 69.0 °F /  20.6 °C 29.94 in /  1013.8 hPa NNE 2.1 mph /  3.4 km/h 3.5 mph /  5.6 km/h 54 % 0.00 in /  0 mm
14:27 87.7 °F /  30.9 °C 69.5 °F /  20.8 °C 29.94 in /  1013.8 hPa WNW 1.8 mph /  2.9 km/h 3.5 mph /  5.6 km/h 55 % 0.00 in /  0 mm
14:32 87.9 °F /  31.1 °C 70.2 °F /  21.2 °C 29.94 in /  1013.8 hPa NNE 1.5 mph /  2.4 km/h 4.6 mph /  7.4 km/h 56 % 0.00 in /  0 mm
14:37 87.9 °F /  31.1 °C 70.2 °F /  21.2 °C 29.94 in /  1013.8 hPa NNE 4.2 mph /  6.8 km/h 8.1 mph /  13 km/h 56 % 0.00 in /  0 mm
14:42 88.0 °F /  31.1 °C 69.3 °F /  20.7 °C 29.94 in /  1013.8 hPa WNW 2.5 mph /  4 km/h 4.0 mph /  6.4 km/h 54 % 0.00 in /  0 mm
14:47 88.0 °F /  31.1 °C 68.7 °F /  20.4 °C 29.93 in /  1013.4 hPa NW 0.8 mph /  1.3 km/h 2.3 mph /  3.7 km/h 53 % 0.00 in /  0 mm
14:52 88.0 °F /  31.1 °C 67.6 °F /  19.8 °C 29.93 in /  1013.4 hPa NW 0.8 mph /  1.3 km/h 3.5 mph /  5.6 km/h 51 % 0.00 in /  0 mm
14:57 88.1 °F /  31.2 °C 67.7 °F /  19.8 °C 29.93 in /  1013.4 hPa WNW 2.8 mph /  4.5 km/h 4.6 mph /  7.4 km/h 51 % 0.00 in /  0 mm
15:02 88.2 °F /  31.2 °C 66.6 °F /  19.2 °C 29.93 in /  1013.4 hPa WNW 2.8 mph /  4.5 km/h 4.6 mph /  7.4 km/h 49 % 0.00 in /  0 mm
15:07 88.1 °F /  31.2 °C 66.5 °F /  19.2 °C 29.93 in /  1013.4 hPa WNW 2.1 mph /  3.4 km/h 3.5 mph /  5.6 km/h 49 % 0.00 in /  0 mm
15:12 88.1 °F /  31.2 °C 66.5 °F /  19.2 °C 29.93 in /  1013.4 hPa NW 1.2 mph /  1.9 km/h 3.0 mph /  4.8 km/h 49 % 0.00 in /  0 mm
15:17 88.1 °F /  31.2 °C 65.9 °F /  18.8 °C 29.93 in /  1013.4 hPa NNW 1.7 mph /  2.7 km/h 4.0 mph /  6.4 km/h 48 % 0.00 in /  0 mm
15:22 88.1 °F /  31.2 °C 65.9 °F /  18.8 °C 29.93 in /  1013.4 hPa NW 0.9 mph /  1.4 km/h 3.5 mph /  5.6 km/h 48 % 0.00 in /  0 mm
15:27 88.0 °F /  31.1 °C 66.4 °F /  19.1 °C 29.93 in /  1013.4 hPa NW 0.2 mph /  0.3 km/h 3.5 mph /  5.6 km/h 49 % 0.00 in /  0 mm
15:33 87.7 °F /  30.9 °C 67.3 °F /  19.6 °C 29.92 in /  1013.1 hPa Calm   3.5 mph /  5.6 km/h 51 % 0.00 in /  0 mm
15:38 87.7 °F /  30.9 °C 67.3 °F /  19.6 °C 29.92 in /  1013.1 hPa North 1.5 mph /  2.4 km/h 3.5 mph /  5.6 km/h 51 % 0.00 in /  0 mm
15:43 87.7 °F /  30.9 °C 66.2 °F /  19 °C 29.92 in /  1013.1 hPa NW 0.4 mph /  0.6 km/h 3.5 mph /  5.6 km/h 49 % 0.00 in /  0 mm
15:48 87.8 °F /  31 °C 66.8 °F /  19.3 °C 29.92 in /  1013.1 hPa NNW 0.3 mph /  0.5 km/h 3.5 mph /  5.6 km/h 50 % 0.00 in /  0 mm
15:53 87.8 °F /  31 °C 66.8 °F /  19.3 °C 29.92 in /  1013.1 hPa WNW 2.1 mph /  3.4 km/h 4.0 mph /  6.4 km/h 50 % 0.00 in /  0 mm
15:58 87.7 °F /  30.9 °C 66.8 °F /  19.3 °C 29.92 in /  1013.1 hPa NNW 0.9 mph /  1.4 km/h 3.5 mph /  5.6 km/h 50 % 0.00 in /  0 mm
16:03 87.3 °F /  30.7 °C 66.4 °F /  19.1 °C 29.92 in /  1013.1 hPa North 1.0 mph /  1.6 km/h 3.5 mph /  5.6 km/h 50 % 0.00 in /  0 mm
16:08 86.8 °F /  30.4 °C 66.5 °F /  19.2 °C 29.92 in /  1013.1 hPa North 0.2 mph /  0.3 km/h 3.5 mph /  5.6 km/h 51 % 0.00 in /  0 mm
16:13 86.3 °F /  30.2 °C 66.6 °F /  19.2 °C 29.92 in /  1013.1 hPa NNE 0.6 mph /  1 km/h 1.2 mph /  1.9 km/h 52 % 0.00 in /  0 mm
16:18 85.7 °F /  29.8 °C 66.0 °F /  18.9 °C 29.92 in /  1013.1 hPa NNW 0.8 mph /  1.3 km/h 3.5 mph /  5.6 km/h 52 % 0.00 in /  0 mm
16:23 85.4 °F /  29.7 °C 66.3 °F /  19.1 °C 29.92 in /  1013.1 hPa NNE 1.6 mph /  2.6 km/h 4.6 mph /  7.4 km/h 53 % 0.00 in /  0 mm
16:29 84.9 °F /  29.4 °C 65.9 °F /  18.8 °C 29.92 in /  1013.1 hPa WNW 1.2 mph /  1.9 km/h 3.5 mph /  5.6 km/h 53 % 0.00 in /  0 mm
16:34 84.7 °F /  29.3 °C 65.7 °F /  18.7 °C 29.92 in /  1013.1 hPa NNE 1.0 mph /  1.6 km/h 3.5 mph /  5.6 km/h 53 % 0.00 in /  0 mm
16:39 84.4 °F /  29.1 °C 64.9 °F /  18.3 °C 29.92 in /  1013.1 hPa North 0.8 mph /  1.3 km/h 4.6 mph /  7.4 km/h 52 % 0.00 in /  0 mm
16:44 84.0 °F /  28.9 °C 65.0 °F /  18.3 °C 29.92 in /  1013.1 hPa NNE 1.1 mph /  1.8 km/h 5.0 mph /  8 km/h 53 % 0.00 in /  0 mm
16:49 83.7 °F /  28.7 °C 63.1 °F /  17.3 °C 29.92 in /  1013.1 hPa NNE 3.6 mph /  5.8 km/h 5.8 mph /  9.3 km/h 50 % 0.00 in /  0 mm
16:54 83.5 °F /  28.6 °C 63.5 °F /  17.5 °C 29.92 in /  1013.1 hPa NE 1.2 mph /  1.9 km/h 3.5 mph /  5.6 km/h 51 % 0.00 in /  0 mm
16:59 83.4 °F /  28.6 °C 63.9 °F /  17.7 °C 29.92 in /  1013.1 hPa NNW 1.6 mph /  2.6 km/h 3.5 mph /  5.6 km/h 52 % 0.00 in /  0 mm
17:04 83.3 °F /  28.5 °C 62.7 °F /  17.1 °C 29.92 in /  1013.1 hPa NE 2.6 mph /  4.2 km/h 6.9 mph /  11.1 km/h 50 % 0.00 in /  0 mm
17:09 83.0 °F /  28.3 °C 62.4 °F /  16.9 °C 29.92 in /  1013.1 hPa North 1.5 mph /  2.4 km/h 4.0 mph /  6.4 km/h 50 % 0.00 in /  0 mm
17:14 82.7 °F /  28.2 °C 62.2 °F /  16.8 °C 29.92 in /  1013.1 hPa North 1.1 mph /  1.8 km/h 3.5 mph /  5.6 km/h 50 % 0.00 in /  0 mm
17:19 82.5 °F /  28.1 °C 62.5 °F /  16.9 °C 29.92 in /  1013.1 hPa NNW 1.6 mph /  2.6 km/h 3.5 mph /  5.6 km/h 51 % 0.00 in /  0 mm
17:24 82.2 °F /  27.9 °C 61.1 °F /  16.2 °C 29.92 in /  1013.1 hPa NNE 2.2 mph /  3.5 km/h 2.3 mph /  3.7 km/h 49 % 0.00 in /  0 mm
17:30 82.0 °F /  27.8 °C 60.4 °F /  15.8 °C 29.92 in /  1013.1 hPa North 0.7 mph /  1.1 km/h 3.5 mph /  5.6 km/h 48 % 0.00 in /  0 mm
17:34 81.7 °F /  27.6 °C 59.5 °F /  15.3 °C 29.92 in /  1013.1 hPa North 0.6 mph /  1 km/h 3.5 mph /  5.6 km/h 47 % 0.00 in /  0 mm
17:40 81.6 °F /  27.6 °C 60.0 °F /  15.6 °C 29.92 in /  1013.1 hPa North 2.1 mph /  3.4 km/h 6.9 mph /  11.1 km/h 48 % 0.00 in /  0 mm
17:45 81.4 °F /  27.4 °C 59.8 °F /  15.4 °C 29.92 in /  1013.1 hPa North 3.7 mph /  6 km/h 6.9 mph /  11.1 km/h 48 % 0.00 in /  0 mm
17:50 81.2 °F /  27.3 °C 59.6 °F /  15.3 °C 29.92 in /  1013.1 hPa NNE 1.9 mph /  3.1 km/h 3.5 mph /  5.6 km/h 48 % 0.00 in /  0 mm
17:55 81.1 °F /  27.3 °C 59.6 °F /  15.3 °C 29.93 in /  1013.4 hPa North 1.9 mph /  3.1 km/h 4.6 mph /  7.4 km/h 48 % 0.00 in /  0 mm
18:00 80.9 °F /  27.2 °C 59.4 °F /  15.2 °C 29.92 in /  1013.1 hPa NW 2.7 mph /  4.3 km/h 4.6 mph /  7.4 km/h 48 % 0.00 in /  0 mm
18:05 80.8 °F /  27.1 °C 58.7 °F /  14.8 °C 29.93 in /  1013.4 hPa NNW 2.5 mph /  4 km/h 4.6 mph /  7.4 km/h 47 % 0.00 in /  0 mm
18:10 80.7 °F /  27.1 °C 59.8 °F /  15.4 °C 29.93 in /  1013.4 hPa North 3.2 mph /  5.1 km/h 5.8 mph /  9.3 km/h 49 % 0.00 in /  0 mm
18:15 80.5 °F /  26.9 °C 60.1 °F /  15.6 °C 29.93 in /  1013.4 hPa North 1.6 mph /  2.6 km/h 4.6 mph /  7.4 km/h 50 % 0.00 in /  0 mm
18:20 80.4 °F /  26.9 °C 60.6 °F /  15.9 °C 29.93 in /  1013.4 hPa North 1.8 mph /  2.9 km/h 3.5 mph /  5.6 km/h 51 % 0.00 in /  0 mm
18:25 80.3 °F /  26.8 °C 61.1 °F /  16.2 °C 29.93 in /  1013.4 hPa NNE 0.3 mph /  0.5 km/h 1.2 mph /  1.9 km/h 52 % 0.00 in /  0 mm
18:30 80.1 °F /  26.7 °C 60.9 °F /  16.1 °C 29.93 in /  1013.4 hPa North 1.0 mph /  1.6 km/h 3.0 mph /  4.8 km/h 52 % 0.00 in /  0 mm
18:36 80.0 °F /  26.7 °C 60.8 °F /  16 °C 29.93 in /  1013.4 hPa Calm   3.0 mph /  4.8 km/h 52 % 0.00 in /  0 mm
18:41 79.8 °F /  26.6 °C 61.1 °F /  16.2 °C 29.93 in /  1013.4 hPa Calm   2.0 mph /  3.2 km/h 53 % 0.00 in /  0 mm
18:46 79.6 °F /  26.4 °C 61.0 °F /  16.1 °C 29.93 in /  1013.4 hPa Calm   5.0 mph /  8 km/h 53 % 0.00 in /  0 mm
18:51 79.4 °F /  26.3 °C 61.3 °F /  16.3 °C 29.93 in /  1013.4 hPa Calm   2.0 mph /  3.2 km/h 54 % 0.00 in /  0 mm
18:56 79.1 °F /  26.2 °C 61.1 °F /  16.2 °C 29.93 in /  1013.4 hPa Calm   2.0 mph /  3.2 km/h 54 % 0.00 in /  0 mm
19:01 78.9 °F /  26.1 °C 61.4 °F /  16.3 °C 29.93 in /  1013.4 hPa Calm   2.3 mph /  3.7 km/h 55 % 0.00 in /  0 mm
19:06 78.7 °F /  25.9 °C 61.2 °F /  16.2 °C 29.93 in /  1013.4 hPa NNW 0.2 mph /  0.3 km/h 1.2 mph /  1.9 km/h 55 % 0.00 in /  0 mm
19:11 78.5 °F /  25.8 °C 62.0 °F /  16.7 °C 29.94 in /  1013.8 hPa Calm     57 % 0.00 in /  0 mm
19:16 78.3 °F /  25.7 °C 62.3 °F /  16.8 °C 29.94 in /  1013.8 hPa NNW 0.1 mph /  0.2 km/h 1.2 mph /  1.9 km/h 58 % 0.00 in /  0 mm
19:21 78.0 °F /  25.6 °C 62.5 °F /  16.9 °C 29.94 in /  1013.8 hPa Calm   1.2 mph /  1.9 km/h 59 % 0.00 in /  0 mm
19:24 77.8 °F /  25.4 °C 62.8 °F /  17.1 °C 29.94 in /  1013.8 hPa Calm     60 % 0.00 in /  0 mm
19:29 77.5 °F /  25.3 °C 62.5 °F /  16.9 °C 29.94 in /  1013.8 hPa Calm     60 % 0.00 in /  0 mm
19:34 77.2 °F /  25.1 °C 63.2 °F /  17.3 °C 29.94 in /  1013.8 hPa Calm     62 % 0.00 in /  0 mm
19:39 76.8 °F /  24.9 °C 63.7 °F /  17.6 °C 29.94 in /  1013.8 hPa NNW 0.1 mph /  0.2 km/h 1.2 mph /  1.9 km/h 64 % 0.00 in /  0 mm
19:44 76.4 °F /  24.7 °C 63.3 °F /  17.4 °C 29.94 in /  1013.8 hPa Calm     64 % 0.00 in /  0 mm
19:49 76.0 °F /  24.4 °C 62.9 °F /  17.2 °C 29.95 in /  1014.1 hPa Calm     64 % 0.00 in /  0 mm
19:54 75.5 °F /  24.2 °C 62.9 °F /  17.2 °C 29.95 in /  1014.1 hPa Calm     65 % 0.00 in /  0 mm
19:59 75.0 °F /  23.9 °C 62.4 °F /  16.9 °C 29.95 in /  1014.1 hPa Calm     65 % 0.00 in /  0 mm
20:04 74.6 °F /  23.7 °C 62.5 °F /  16.9 °C 29.95 in /  1014.1 hPa Calm     66 % 0.00 in /  0 mm
20:09 74.2 °F /  23.4 °C 62.1 °F /  16.7 °C 29.95 in /  1014.1 hPa Calm     66 % 0.00 in /  0 mm
20:14 73.8 °F /  23.2 °C 61.7 °F /  16.5 °C 29.95 in /  1014.1 hPa Calm     66 % 0.00 in /  0 mm
20:19 73.5 °F /  23.1 °C 61.9 °F /  16.6 °C 29.95 in /  1014.1 hPa Calm     67 % 0.00 in /  0 mm
20:24 73.1 °F /  22.8 °C 61.9 °F /  16.6 °C 29.95 in /  1014.1 hPa Calm     68 % 0.00 in /  0 mm
20:29 72.8 °F /  22.7 °C 61.6 °F /  16.4 °C 29.95 in /  1014.1 hPa NNW 0.4 mph /  0.6 km/h 2.3 mph /  3.7 km/h 68 % 0.00 in /  0 mm
20:34 72.5 °F /  22.5 °C 61.7 °F /  16.5 °C 29.96 in /  1014.4 hPa Calm     69 % 0.00 in /  0 mm
20:39 72.2 °F /  22.3 °C 61.5 °F /  16.4 °C 29.96 in /  1014.4 hPa Calm     69 % 0.00 in /  0 mm
20:44 71.9 °F /  22.2 °C 61.2 °F /  16.2 °C 29.96 in /  1014.4 hPa Calm     69 % 0.00 in /  0 mm
20:50 71.7 °F /  22.1 °C 61.4 °F /  16.3 °C 29.96 in /  1014.4 hPa Calm     70 % 0.00 in /  0 mm
20:55 71.5 °F /  21.9 °C 61.6 °F /  16.4 °C 29.96 in /  1014.4 hPa Calm     71 % 0.00 in /  0 mm
21:00 71.1 °F /  21.7 °C 62.0 °F /  16.7 °C 29.96 in /  1014.4 hPa Calm     73 % 0.00 in /  0 mm
21:05 70.9 °F /  21.6 °C 61.4 °F /  16.3 °C 29.96 in /  1014.4 hPa Calm     72 % 0.00 in /  0 mm
21:10 70.6 °F /  21.4 °C 61.5 °F /  16.4 °C 29.96 in /  1014.4 hPa Calm     73 % 0.00 in /  0 mm
21:15 70.4 °F /  21.3 °C 61.7 °F /  16.5 °C 29.96 in /  1014.4 hPa Calm     74 % 0.00 in /  0 mm
21:20 70.1 °F /  21.2 °C 61.0 °F /  16.1 °C 29.96 in /  1014.4 hPa Calm     73 % 0.00 in /  0 mm
21:25 69.9 °F /  21.1 °C 61.2 °F /  16.2 °C 29.96 in /  1014.4 hPa Calm   1.2 mph /  1.9 km/h 74 % 0.00 in /  0 mm
21:30 69.7 °F /  20.9 °C 61.4 °F /  16.3 °C 29.96 in /  1014.4 hPa Calm   2.3 mph /  3.7 km/h 75 % 0.00 in /  0 mm
21:35 69.4 °F /  20.8 °C 61.1 °F /  16.2 °C 29.96 in /  1014.4 hPa NNW 0.7 mph /  1.1 km/h 1.2 mph /  1.9 km/h 75 % 0.00 in /  0 mm
21:40 69.2 °F /  20.7 °C 61.3 °F /  16.3 °C 29.96 in /  1014.4 hPa NNW 0.4 mph /  0.6 km/h 1.2 mph /  1.9 km/h 76 % 0.00 in /  0 mm
21:45 69.0 °F /  20.6 °C 61.1 °F /  16.2 °C 29.96 in /  1014.4 hPa Calm     76 % 0.00 in /  0 mm
21:50 68.8 °F /  20.4 °C 60.9 °F /  16.1 °C 29.96 in /  1014.4 hPa Calm     76 % 0.00 in /  0 mm
21:55 68.7 °F /  20.4 °C 60.8 °F /  16 °C 29.97 in /  1014.8 hPa Calm     76 % 0.00 in /  0 mm
22:00 68.5 °F /  20.3 °C 60.6 °F /  15.9 °C 29.97 in /  1014.8 hPa Calm     76 % 0.00 in /  0 mm
22:05 68.4 °F /  20.2 °C 60.9 °F /  16.1 °C 29.96 in /  1014.4 hPa Calm     77 % 0.00 in /  0 mm
22:10 68.3 °F /  20.2 °C 60.8 °F /  16 °C 29.96 in /  1014.4 hPa Calm     77 % 0.00 in /  0 mm
22:15 68.1 °F /  20.1 °C 61.0 °F /  16.1 °C 29.96 in /  1014.4 hPa Calm   1.2 mph /  1.9 km/h 78 % 0.00 in /  0 mm
22:17 68.1 °F /  20.1 °C 61.0 °F /  16.1 °C 29.97 in /  1014.8 hPa Calm     78 % 0.00 in /  0 mm
22:22 68.0 °F /  20 °C 61.2 °F /  16.2 °C 29.97 in /  1014.8 hPa Calm     79 % 0.00 in /  0 mm
22:27 67.9 °F /  19.9 °C 61.1 °F /  16.2 °C 29.97 in /  1014.8 hPa Calm     79 % 0.00 in /  0 mm
22:33 67.7 °F /  19.8 °C 61.3 °F /  16.3 °C 29.97 in /  1014.8 hPa Calm     80 % 0.00 in /  0 mm
22:38 67.6 °F /  19.8 °C 61.2 °F /  16.2 °C 29.97 in /  1014.8 hPa Calm   1.2 mph /  1.9 km/h 80 % 0.00 in /  0 mm
22:43 67.5 °F /  19.7 °C 61.1 °F /  16.2 °C 29.97 in /  1014.8 hPa Calm     80 % 0.00 in /  0 mm
22:48 67.4 °F /  19.7 °C 61.0 °F /  16.1 °C 29.97 in /  1014.8 hPa Calm     80 % 0.00 in /  0 mm
22:53 67.3 °F /  19.6 °C 61.3 °F /  16.3 °C 29.97 in /  1014.8 hPa Calm     81 % 0.00 in /  0 mm
22:58 67.2 °F /  19.6 °C 60.8 °F /  16 °C 29.97 in /  1014.8 hPa Calm     80 % 0.00 in /  0 mm
23:03 67.0 °F /  19.4 °C 60.6 °F /  15.9 °C 29.97 in /  1014.8 hPa Calm     80 % 0.00 in /  0 mm
23:08 66.9 °F /  19.4 °C 60.5 °F /  15.8 °C 29.97 in /  1014.8 hPa Calm     80 % 0.00 in /  0 mm
23:16 66.8 °F /  19.3 °C 60.8 °F /  16 °C 29.97 in /  1014.8 hPa Calm     81 % 0.00 in /  0 mm
23:21 66.6 °F /  19.2 °C 60.9 °F /  16.1 °C 29.97 in /  1014.8 hPa Calm     82 % 0.00 in /  0 mm
23:24 66.5 °F /  19.2 °C 60.8 °F /  16 °C 29.97 in /  1014.8 hPa Calm     82 % 0.00 in /  0 mm
23:26 66.5 °F /  19.2 °C 60.8 °F /  16 °C 29.97 in /  1014.8 hPa Calm     82 % 0.00 in /  0 mm
23:35 66.3 °F /  19.1 °C 60.6 °F /  15.9 °C 29.97 in /  1014.8 hPa Calm     82 % 0.00 in /  0 mm
23:40 66.2 °F /  19 °C 60.5 °F /  15.8 °C 29.97 in /  1014.8 hPa Calm     82 % 0.00 in /  0 mm
23:45 66.1 °F /  18.9 °C 60.4 °F /  15.8 °C 29.97 in /  1014.8 hPa Calm     82 % 0.00 in /  0 mm
23:50 66.0 °F /  18.9 °C 61.0 °F /  16.1 °C 29.97 in /  1014.8 hPa Calm     84 % 0.00 in /  0 mm
23:55 66.1 °F /  18.9 °C 61.5 °F /  16.4 °C 29.97 in /  1014.8 hPa NNW 0.4 mph /  0.6 km/h 1.2 mph /  1.9 km/h 85 % 0.00 in /  0 mm
Crab Meadow Weather
Compliments of Weather Underground - 3 mb

Script developed by  Jim McMurry - jmcmurry@mwt.net Adapted for the template by  Wim van der Kuil - Leuven-Template.eu

Hurricanes: Hurricanes are classified into five categories, based on their wind speeds and potential to cause damage. * Category One -- Winds 74-95 miles per hour * Category Two -- Winds 96-110 miles per hour * Category Three -- Winds 111-130 miles per hour * Category Four -- Winds 131-155 miles per hour * Category Five -- Winds greater than 155 miles per hour.